Time;durP1;ratioP1;P1;durP2;ratioP2;P2;SDS_P1;SDS_P2;PMS_P1;PMS_P2;Temp;Humidity;BMP_temperature;BMP_pressure;BME280_temperature;BME280_humidity;BME280_pressure;Samples;Min_cycle;Max_cycle;Signal;HPM_P1;HPM_P2
2022/09/15 00:02:21;;;;;;;;;;;19.80;97.10;;;;;;5042682;28;20420;-74
2022/09/15 00:04:48;;;;;;;;;;;19.80;97.00;;;;;;5042211;28;20420;-74
2022/09/15 00:07:14;;;;;;;;;;;19.80;97.00;;;;;;5043516;28;19936;-73
2022/09/15 00:09:41;;;;;;;;;;;19.80;97.00;;;;;;5043213;28;20037;-74
2022/09/15 00:12:08;;;;;;;;;;;19.70;97.00;;;;;;5046433;28;20448;-74
2022/09/15 00:14:34;;;;;;;;;;;19.70;96.90;;;;;;5042801;28;19935;-74
2022/09/15 00:17:01;;;;;;;;;;;19.80;96.90;;;;;;5040910;28;19940;-74
2022/09/15 00:19:28;;;;;;;;;;;19.70;96.90;;;;;;5043493;28;19936;-74
2022/09/15 00:21:55;;;;;;;;;;;19.70;96.90;;;;;;5046421;28;19933;-74
2022/09/15 00:24:21;;;;;;;;;;;19.70;96.90;;;;;;5042093;28;19952;-74
2022/09/15 00:26:48;;;;;;;;;;;19.70;96.90;;;;;;5043189;28;19933;-73
2022/09/15 00:29:15;;;;;;;;;;;19.70;96.90;;;;;;5044403;28;20373;-74
2022/09/15 00:31:41;;;;;;;;;;;19.70;96.90;;;;;;5043776;28;20045;-74
2022/09/15 00:34:11;;;;;;;;;;;19.60;96.90;;;;;;5040216;28;20011;-73
2022/09/15 00:36:39;;;;;;;;;;;19.60;97.20;;;;;;5042081;28;19925;-74
2022/09/15 00:39:05;;;;;;;;;;;19.60;96.90;;;;;;5041257;28;20460;-74
2022/09/15 00:41:32;;;;;;;;;;;19.60;96.80;;;;;;5042858;28;19935;-74
2022/09/15 00:44:00;;;;;;;;;;;19.60;96.80;;;;;;5047093;28;19940;-75
2022/09/15 00:46:27;;;;;;;;;;;19.60;96.80;;;;;;5042405;28;19936;-74
2022/09/15 00:48:57;;;;;;;;;;;19.60;96.80;;;;;;5041652;28;19929;-74
2022/09/15 00:51:32;;;;;;;;;;;19.60;96.80;;;;;;5043800;28;20419;-75
2022/09/15 00:54:01;;;;;;;;;;;19.60;96.80;;;;;;5043279;28;20002;-74
2022/09/15 00:56:28;;;;;;;;;;;19.60;96.80;;;;;;5032608;28;19978;-74
2022/09/15 00:58:57;;;;;;;;;;;19.50;96.80;;;;;;5044312;28;20003;-74
2022/09/15 01:01:25;;;;;;;;;;;19.50;96.80;;;;;;5043784;28;19951;-74
2022/09/15 01:03:52;;;;;;;;;;;19.50;96.80;;;;;;5036634;28;19929;-74
2022/09/15 01:06:22;;;;;;;;;;;19.50;96.80;;;;;;5031554;28;20312;-73
2022/09/15 01:08:51;;;;;;;;;;;19.50;96.80;;;;;;5038043;28;20392;-76
2022/09/15 01:11:20;;;;;;;;;;;19.50;96.80;;;;;;5039475;28;19933;-74
2022/09/15 01:13:46;;;;;;;;;;;19.50;96.80;;;;;;5043433;28;19928;-74
2022/09/15 01:16:15;;;;;;;;;;;19.40;96.80;;;;;;5045654;28;20422;-74
2022/09/15 01:18:45;;;;;;;;;;;19.50;96.80;;;;;;5042541;28;19936;-75
2022/09/15 01:21:20;;;;;;;;;;;19.40;96.80;;;;;;5039942;28;19928;-73
2022/09/15 01:24:10;;;;;;;;;;;19.40;96.80;;;;;;5042861;28;19929;-74
2022/09/15 01:26:55;;;;;;;;;;;19.40;96.80;;;;;;5040977;28;20439;-74
2022/09/15 01:29:31;;;;;;;;;;;19.40;96.70;;;;;;5039703;28;19933;-74
2022/09/15 01:34:53;;;;;;;;;;;19.40;96.70;;;;;;5040172;28;19997;-74
2022/09/15 01:37:21;;;;;;;;;;;19.30;96.70;;;;;;5043090;28;19929;-74
2022/09/15 01:39:50;;;;;;;;;;;19.30;96.70;;;;;;5040541;28;20029;-76
2022/09/15 01:42:18;;;;;;;;;;;19.30;96.70;;;;;;5039798;28;19937;-73
2022/09/15 01:44:48;;;;;;;;;;;19.30;96.80;;;;;;5043092;28;19932;-74
2022/09/15 01:47:16;;;;;;;;;;;19.30;96.80;;;;;;5038468;28;20490;-72
2022/09/15 01:49:46;;;;;;;;;;;19.30;96.80;;;;;;5041989;28;19936;-73
2022/09/15 01:52:14;;;;;;;;;;;19.30;96.80;;;;;;5041542;28;19940;-73
2022/09/15 01:54:44;;;;;;;;;;;19.20;96.80;;;;;;5037881;28;19944;-73
2022/09/15 01:57:11;;;;;;;;;;;19.20;96.80;;;;;;5038058;28;20131;-75
2022/09/15 01:59:37;;;;;;;;;;;19.20;96.80;;;;;;5042574;28;19942;-73
2022/09/15 02:02:08;;;;;;;;;;;19.20;96.80;;;;;;5044231;28;20455;-74
2022/09/15 02:04:38;;;;;;;;;;;19.20;96.80;;;;;;5039240;28;19936;-74
2022/09/15 02:07:10;;;;;;;;;;;19.20;96.90;;;;;;5042682;28;19931;-74
2022/09/15 02:09:38;;;;;;;;;;;19.20;96.90;;;;;;5041517;28;19928;-73
2022/09/15 02:12:09;;;;;;;;;;;19.20;96.90;;;;;;5046731;28;19928;-74
2022/09/15 02:14:46;;;;;;;;;;;19.20;96.90;;;;;;5038307;28;19935;-74
2022/09/15 02:17:16;;;;;;;;;;;19.10;96.90;;;;;;5038125;28;19933;-75
2022/09/15 02:19:45;;;;;;;;;;;19.20;97.00;;;;;;5038000;28;19974;-73
2022/09/15 02:22:16;;;;;;;;;;;19.10;96.90;;;;;;5037772;28;19937;-73
2022/09/15 02:24:44;;;;;;;;;;;19.10;97.00;;;;;;5036835;28;19933;-73
2022/09/15 02:27:12;;;;;;;;;;;19.10;97.00;;;;;;5040078;28;19928;-74
2022/09/15 02:29:40;;;;;;;;;;;19.10;97.00;;;;;;5039407;28;19944;-73
2022/09/15 02:32:07;;;;;;;;;;;19.10;97.00;;;;;;5038303;28;19936;-73
2022/09/15 02:34:36;;;;;;;;;;;19.10;97.00;;;;;;5039828;28;19929;-72
2022/09/15 02:37:03;;;;;;;;;;;19.00;97.00;;;;;;5041555;28;19935;-72
2022/09/15 02:39:32;;;;;;;;;;;19.00;97.00;;;;;;5040196;28;19928;-73
2022/09/15 02:42:01;;;;;;;;;;;19.00;97.00;;;;;;5033835;28;19939;-74
2022/09/15 02:44:29;;;;;;;;;;;19.00;97.00;;;;;;5038738;28;19933;-73
2022/09/15 02:46:56;;;;;;;;;;;19.00;97.10;;;;;;5038556;28;20029;-74
2022/09/15 02:49:22;;;;;;;;;;;19.00;97.10;;;;;;5035888;28;20377;-74
2022/09/15 02:51:50;;;;;;;;;;;19.00;97.10;;;;;;5038653;28;19935;-74
2022/09/15 02:54:17;;;;;;;;;;;19.00;97.20;;;;;;5045574;28;20412;-72
2022/09/15 02:56:44;;;;;;;;;;;19.00;97.50;;;;;;5036797;28;19932;-74
2022/09/15 02:59:10;;;;;;;;;;;18.90;97.10;;;;;;5045309;28;19990;-73
2022/09/15 03:01:37;;;;;;;;;;;19.00;97.20;;;;;;5039292;28;20295;-74
2022/09/15 03:04:04;;;;;;;;;;;18.90;97.20;;;;;;5041758;28;20382;-73
2022/09/15 03:06:34;;;;;;;;;;;18.90;97.20;;;;;;5039026;28;19982;-73
2022/09/15 03:09:04;;;;;;;;;;;19.00;97.30;;;;;;5044479;28;19942;-73
2022/09/15 03:11:30;;;;;;;;;;;19.00;97.30;;;;;;5044670;28;19929;-73
2022/09/15 03:13:58;;;;;;;;;;;19.00;97.30;;;;;;5046602;28;19975;-73
2022/09/15 03:16:24;;;;;;;;;;;19.00;97.30;;;;;;5047432;28;19954;-73
2022/09/15 03:18:53;;;;;;;;;;;19.00;97.40;;;;;;5046571;28;20328;-73
2022/09/15 03:21:19;;;;;;;;;;;18.90;97.40;;;;;;5042421;28;19925;-74
2022/09/15 03:23:46;;;;;;;;;;;19.00;97.40;;;;;;5045103;28;19971;-73
2022/09/15 03:26:14;;;;;;;;;;;18.90;97.40;;;;;;5042805;28;19928;-73
2022/09/15 03:28:41;;;;;;;;;;;18.90;97.40;;;;;;5046040;28;19928;-74
2022/09/15 03:31:08;;;;;;;;;;;18.90;97.40;;;;;;5045680;28;19990;-73
2022/09/15 03:33:34;;;;;;;;;;;18.90;97.40;;;;;;5043685;28;19925;-73
2022/09/15 03:36:01;;;;;;;;;;;18.90;97.40;;;;;;5043135;28;19924;-74
2022/09/15 03:38:28;;;;;;;;;;;18.90;97.40;;;;;;5045697;28;19984;-73
2022/09/15 03:40:59;;;;;;;;;;;18.90;97.40;;;;;;5040425;28;20522;-73
2022/09/15 03:43:27;;;;;;;;;;;18.90;97.40;;;;;;5045047;28;19928;-74
2022/09/15 03:45:54;;;;;;;;;;;18.90;97.50;;;;;;5045875;28;19935;-72
2022/09/15 03:48:21;;;;;;;;;;;18.90;97.50;;;;;;5044866;28;20671;-73
2022/09/15 03:50:48;;;;;;;;;;;18.80;97.40;;;;;;5039612;28;20613;-75
2022/09/15 03:53:14;;;;;;;;;;;18.80;97.40;;;;;;5041746;28;20011;-74
2022/09/15 03:55:41;;;;;;;;;;;18.90;97.50;;;;;;5040557;28;19928;-74
2022/09/15 03:58:07;;;;;;;;;;;18.90;97.50;;;;;;5039485;28;20227;-73
2022/09/15 04:00:35;;;;;;;;;;;18.90;97.50;;;;;;5044487;28;19933;-74
2022/09/15 04:03:02;;;;;;;;;;;18.80;97.50;;;;;;5043069;28;19924;-73
2022/09/15 04:05:29;;;;;;;;;;;18.80;97.50;;;;;;5041111;28;19932;-72
2022/09/15 04:07:55;;;;;;;;;;;18.80;97.50;;;;;;5044794;28;19933;-73
2022/09/15 04:10:23;;;;;;;;;;;18.80;97.50;;;;;;5041819;28;19928;-73
2022/09/15 04:12:50;;;;;;;;;;;18.80;97.50;;;;;;5044612;28;19936;-73
2022/09/15 04:15:16;;;;;;;;;;;18.80;97.50;;;;;;5043706;28;19932;-74
2022/09/15 04:17:44;;;;;;;;;;;18.80;97.40;;;;;;5044169;28;19936;-73
2022/09/15 04:20:11;;;;;;;;;;;18.80;97.40;;;;;;5042978;28;19933;-72
2022/09/15 04:22:37;;;;;;;;;;;18.80;97.50;;;;;;5042230;28;19935;-72
2022/09/15 04:25:04;;;;;;;;;;;18.80;97.50;;;;;;5040834;28;19933;-73
2022/09/15 04:27:33;;;;;;;;;;;18.80;97.50;;;;;;5042517;28;19928;-73
2022/09/15 04:29:59;;;;;;;;;;;18.80;97.50;;;;;;5043298;28;20029;-73
2022/09/15 04:32:28;;;;;;;;;;;18.80;97.50;;;;;;5041998;28;19939;-73
2022/09/15 04:34:56;;;;;;;;;;;18.80;97.80;;;;;;5039936;28;19947;-73
2022/09/15 04:37:23;;;;;;;;;;;18.80;97.50;;;;;;5041549;28;19947;-73
2022/09/15 04:39:49;;;;;;;;;;;18.80;97.50;;;;;;5040199;28;19952;-73
2022/09/15 04:42:16;;;;;;;;;;;18.70;97.40;;;;;;5041679;28;20384;-73
2022/09/15 04:44:42;;;;;;;;;;;18.80;97.50;;;;;;5041899;28;19933;-73
2022/09/15 04:47:09;;;;;;;;;;;18.70;97.50;;;;;;5040600;28;20414;-72
2022/09/15 04:49:36;;;;;;;;;;;18.80;97.50;;;;;;5040055;28;19998;-73
2022/09/15 04:52:04;;;;;;;;;;;18.70;97.40;;;;;;5039297;28;19933;-73
2022/09/15 04:54:30;;;;;;;;;;;18.70;97.40;;;;;;5040226;28;19929;-73
2022/09/15 04:56:57;;;;;;;;;;;18.80;97.50;;;;;;5041776;28;19928;-73
2022/09/15 04:59:24;;;;;;;;;;;18.70;97.50;;;;;;5043898;28;20111;-73
2022/09/15 05:01:53;;;;;;;;;;;18.80;97.50;;;;;;5041935;28;19944;-76
2022/09/15 05:04:20;;;;;;;;;;;18.80;97.50;;;;;;5036090;28;19929;-74
2022/09/15 05:06:46;;;;;;;;;;;18.80;97.50;;;;;;5038901;28;19935;-74
2022/09/15 05:09:14;;;;;;;;;;;18.70;97.50;;;;;;5037069;28;19960;-74
2022/09/15 05:11:41;;;;;;;;;;;18.70;97.50;;;;;;5035335;28;19932;-72
2022/09/15 05:14:08;;;;;;;;;;;18.70;97.50;;;;;;5037983;28;20047;-73
2022/09/15 05:16:35;;;;;;;;;;;18.70;97.50;;;;;;5037759;28;19997;-73
2022/09/15 05:19:02;;;;;;;;;;;18.70;97.90;;;;;;5037702;28;19933;-73
2022/09/15 05:21:28;;;;;;;;;;;18.70;97.60;;;;;;5036913;28;20371;-73
2022/09/15 05:23:55;;;;;;;;;;;18.70;97.50;;;;;;5036348;28;20420;-73
2022/09/15 05:26:25;;;;;;;;;;;18.70;97.50;;;;;;5035810;28;19935;-71
2022/09/15 05:28:51;;;;;;;;;;;18.70;97.50;;;;;;5043404;28;20399;-71
2022/09/15 05:31:19;;;;;;;;;;;18.70;97.50;;;;;;5041996;28;19936;-72
2022/09/15 05:33:47;;;;;;;;;;;18.70;97.50;;;;;;5039187;28;20161;-69
2022/09/15 05:36:14;;;;;;;;;;;18.70;97.60;;;;;;5040364;28;19929;-72
2022/09/15 05:38:40;;;;;;;;;;;18.70;97.60;;;;;;5042650;28;19933;-72
2022/09/15 05:41:08;;;;;;;;;;;18.60;97.50;;;;;;5035820;28;19932;-71
2022/09/15 05:43:36;;;;;;;;;;;18.70;97.50;;;;;;5040696;28;19929;-72
2022/09/15 05:46:03;;;;;;;;;;;18.60;97.50;;;;;;5042208;28;19929;-72
2022/09/15 05:48:30;;;;;;;;;;;18.60;97.40;;;;;;5041641;28;19929;-72
2022/09/15 05:50:57;;;;;;;;;;;18.60;97.40;;;;;;5040595;28;20623;-71
2022/09/15 05:53:23;;;;;;;;;;;18.60;97.40;;;;;;5040299;28;20010;-72
2022/09/15 05:55:54;;;;;;;;;;;18.60;97.50;;;;;;5039680;28;19939;-72
2022/09/15 05:58:20;;;;;;;;;;;18.60;97.40;;;;;;5040776;28;19929;-76
2022/09/15 06:00:48;;;;;;;;;;;18.60;97.50;;;;;;5037526;28;19952;-76
2022/09/15 06:03:16;;;;;;;;;;;18.60;97.40;;;;;;5036611;28;19990;-76
2022/09/15 06:05:43;;;;;;;;;;;18.60;97.40;;;;;;5035740;28;19982;-75
2022/09/15 06:08:09;;;;;;;;;;;18.60;97.60;;;;;;5040144;28;20301;-73
2022/09/15 06:10:36;;;;;;;;;;;18.60;97.40;;;;;;5039304;28;20479;-76
2022/09/15 06:13:02;;;;;;;;;;;18.60;97.40;;;;;;5040482;28;19933;-76
2022/09/15 06:15:29;;;;;;;;;;;18.60;97.40;;;;;;5042537;28;20154;-75
2022/09/15 06:17:57;;;;;;;;;;;18.60;97.40;;;;;;5039860;28;19971;-75
2022/09/15 06:20:24;;;;;;;;;;;18.60;97.40;;;;;;5034758;28;19929;-76
2022/09/15 06:22:51;;;;;;;;;;;18.60;97.50;;;;;;5041358;28;19929;-77
2022/09/15 06:25:17;;;;;;;;;;;18.60;97.50;;;;;;5040397;28;19940;-77
2022/09/15 06:27:44;;;;;;;;;;;18.60;97.50;;;;;;5041930;28;19928;-76
2022/09/15 06:30:11;;;;;;;;;;;18.60;97.50;;;;;;5041392;28;19937;-75
2022/09/15 06:32:37;;;;;;;;;;;18.60;97.50;;;;;;5037940;28;20030;-76
2022/09/15 06:35:06;;;;;;;;;;;18.60;97.50;;;;;;5033205;28;19936;-76
2022/09/15 06:37:33;;;;;;;;;;;18.60;97.50;;;;;;5040827;28;19932;-76
2022/09/15 06:39:59;;;;;;;;;;;18.60;97.50;;;;;;5036490;28;20011;-76
2022/09/15 06:42:26;;;;;;;;;;;18.60;97.50;;;;;;5039191;28;19933;-76
2022/09/15 06:44:52;;;;;;;;;;;18.60;97.50;;;;;;5040851;28;20739;-75
2022/09/15 06:47:19;;;;;;;;;;;18.60;97.50;;;;;;5038287;28;19939;-75
2022/09/15 06:49:46;;;;;;;;;;;18.60;97.50;;;;;;5036800;28;20117;-76
2022/09/15 06:52:13;;;;;;;;;;;18.50;97.50;;;;;;5035491;28;20410;-74
2022/09/15 06:54:40;;;;;;;;;;;18.60;97.60;;;;;;5036633;28;21692;-75
2022/09/15 06:57:07;;;;;;;;;;;18.50;97.60;;;;;;5034791;28;20759;-75
2022/09/15 06:59:33;;;;;;;;;;;18.50;97.60;;;;;;5029448;28;20380;-75
2022/09/15 07:02:00;;;;;;;;;;;18.50;97.60;;;;;;5027349;28;19988;-75
2022/09/15 07:04:26;;;;;;;;;;;18.50;97.60;;;;;;5024432;28;19932;-75
2022/09/15 07:06:53;;;;;;;;;;;18.50;97.60;;;;;;5028666;28;19929;-72
2022/09/15 07:09:21;;;;;;;;;;;18.60;97.60;;;;;;5039915;28;19940;-71
2022/09/15 07:11:47;;;;;;;;;;;18.50;97.50;;;;;;5040261;28;19968;-72
2022/09/15 07:14:14;;;;;;;;;;;18.50;97.50;;;;;;5039881;28;19994;-71
2022/09/15 07:16:41;;;;;;;;;;;18.50;97.40;;;;;;5041753;28;19940;-72
2022/09/15 07:19:07;;;;;;;;;;;18.40;97.40;;;;;;5035323;28;19929;-71
2022/09/15 07:21:34;;;;;;;;;;;18.50;97.30;;;;;;5039334;28;19929;-71
2022/09/15 07:24:01;;;;;;;;;;;18.40;97.20;;;;;;5039226;28;19936;-71
2022/09/15 07:26:29;;;;;;;;;;;18.40;97.10;;;;;;5040565;28;19943;-72
2022/09/15 07:28:57;;;;;;;;;;;18.40;97.00;;;;;;5041532;28;20542;-72
2022/09/15 07:31:24;;;;;;;;;;;18.30;96.90;;;;;;5040443;28;19928;-72
2022/09/15 07:33:51;;;;;;;;;;;18.40;96.90;;;;;;5040521;28;20292;-71
2022/09/15 07:36:17;;;;;;;;;;;18.40;96.90;;;;;;5042031;28;19936;-69
2022/09/15 07:38:45;;;;;;;;;;;18.30;96.90;;;;;;5040527;28;19935;-72
2022/09/15 07:41:12;;;;;;;;;;;18.30;96.80;;;;;;5036912;28;20293;-71
2022/09/15 07:43:44;;;;;;;;;;;18.30;96.90;;;;;;5040926;28;19940;-71
2022/09/15 07:46:11;;;;;;;;;;;18.30;96.80;;;;;;5044379;28;20452;-71
2022/09/15 07:48:37;;;;;;;;;;;18.30;96.80;;;;;;5044903;28;19925;-71
2022/09/15 07:51:04;;;;;;;;;;;18.20;96.80;;;;;;5040148;28;19933;-72
2022/09/15 07:53:30;;;;;;;;;;;18.20;96.80;;;;;;5043582;28;19932;-72
2022/09/15 07:55:57;;;;;;;;;;;18.20;96.80;;;;;;5041230;28;19962;-77
2022/09/15 07:58:24;;;;;;;;;;;18.20;96.70;;;;;;5040433;28;19936;-77
2022/09/15 08:00:52;;;;;;;;;;;18.20;96.80;;;;;;5042407;28;19999;-76
2022/09/15 08:03:18;;;;;;;;;;;18.20;96.80;;;;;;5039615;28;19932;-77
2022/09/15 08:05:45;;;;;;;;;;;18.10;96.70;;;;;;5040112;28;19933;-76
2022/09/15 08:08:11;;;;;;;;;;;18.10;96.70;;;;;;5038353;28;20332;-78
2022/09/15 08:10:38;;;;;;;;;;;18.10;96.70;;;;;;5040758;28;19928;-76
2022/09/15 08:13:05;;;;;;;;;;;18.10;96.70;;;;;;5042649;28;19925;-77
2022/09/15 08:15:34;;;;;;;;;;;18.10;96.70;;;;;;5045393;28;19929;-77
2022/09/15 08:18:02;;;;;;;;;;;18.00;96.70;;;;;;5041383;28;19936;-77
2022/09/15 08:20:30;;;;;;;;;;;18.00;96.70;;;;;;5042103;28;19935;-77
2022/09/15 08:22:56;;;;;;;;;;;18.00;96.60;;;;;;5038066;28;19935;-77
2022/09/15 08:25:23;;;;;;;;;;;18.00;96.60;;;;;;5042758;28;19925;-77
2022/09/15 08:27:49;;;;;;;;;;;18.00;96.60;;;;;;5039744;28;21454;-76
2022/09/15 08:30:16;;;;;;;;;;;17.90;96.60;;;;;;5037229;28;20568;-77
2022/09/15 08:32:43;;;;;;;;;;;17.90;96.60;;;;;;5037275;28;19935;-75
2022/09/15 08:35:11;;;;;;;;;;;18.00;96.60;;;;;;5041392;28;19935;-76
2022/09/15 08:37:38;;;;;;;;;;;17.90;96.60;;;;;;5040346;28;19932;-77
2022/09/15 08:40:05;;;;;;;;;;;17.90;96.60;;;;;;5034037;28;19943;-77
2022/09/15 08:42:33;;;;;;;;;;;17.90;96.60;;;;;;5035662;28;19940;-77
2022/09/15 08:45:02;;;;;;;;;;;17.90;96.60;;;;;;5043134;28;19932;-77
2022/09/15 08:47:31;;;;;;;;;;;17.80;96.50;;;;;;5039390;28;19939;-77
2022/09/15 08:50:01;;;;;;;;;;;17.80;96.60;;;;;;5039576;28;19936;-76
2022/09/15 08:52:31;;;;;;;;;;;17.80;96.60;;;;;;5037068;28;19933;-77
2022/09/15 08:54:59;;;;;;;;;;;17.80;96.60;;;;;;5039697;28;19933;-77
2022/09/15 08:57:26;;;;;;;;;;;17.80;96.60;;;;;;5043659;28;20416;-76
2022/09/15 08:59:53;;;;;;;;;;;17.80;96.60;;;;;;5040913;28;20447;-76
2022/09/15 09:02:41;;;;;;;;;;;17.80;96.60;;;;;;5044523;28;19978;-76
2022/09/15 09:05:14;;;;;;;;;;;17.80;96.70;;;;;;5039111;28;19929;-77
2022/09/15 09:07:55;;;;;;;;;;;17.80;96.70;;;;;;5045341;28;19933;-76
2022/09/15 09:10:25;;;;;;;;;;;17.70;96.70;;;;;;5039043;28;19925;-77
2022/09/15 09:12:59;;;;;;;;;;;17.70;96.70;;;;;;5046791;28;19940;-77
2022/09/15 09:15:32;;;;;;;;;;;17.70;96.70;;;;;;5039581;28;20010;-78
2022/09/15 09:18:13;;;;;;;;;;;17.70;96.70;;;;;;5043153;28;19928;-77
2022/09/15 09:20:44;;;;;;;;;;;17.70;96.70;;;;;;5039995;28;19951;-77
2022/09/15 09:23:12;;;;;;;;;;;17.70;96.70;;;;;;5041404;28;20392;-77
2022/09/15 09:25:40;;;;;;;;;;;17.60;96.70;;;;;;5043183;28;19929;-78
2022/09/15 09:28:11;;;;;;;;;;;17.60;96.70;;;;;;5043255;28;19928;-78
2022/09/15 09:30:38;;;;;;;;;;;17.70;96.80;;;;;;5037720;28;19935;-77
2022/09/15 09:33:13;;;;;;;;;;;17.60;96.70;;;;;;5043562;28;19928;-78
2022/09/15 09:35:41;;;;;;;;;;;17.60;96.70;;;;;;5042098;28;19935;-78
2022/09/15 09:38:08;;;;;;;;;;;17.60;96.80;;;;;;5042550;28;19925;-78
2022/09/15 09:40:40;;;;;;;;;;;17.60;96.70;;;;;;5039357;28;19936;-78
2022/09/15 09:43:08;;;;;;;;;;;17.60;96.70;;;;;;5042376;28;20033;-77
2022/09/15 09:45:34;;;;;;;;;;;17.50;96.90;;;;;;5038602;28;19929;-77
2022/09/15 09:48:02;;;;;;;;;;;17.50;96.70;;;;;;5041749;28;20304;-78
2022/09/15 09:50:37;;;;;;;;;;;17.60;96.80;;;;;;5031540;28;20027;-79
2022/09/15 09:53:18;;;;;;;;;;;17.50;96.70;;;;;;5023262;28;20029;-80
2022/09/15 09:55:45;;;;;;;;;;;17.60;96.80;;;;;;5023316;28;19936;-79
2022/09/15 09:58:17;;;;;;;;;;;17.50;96.70;;;;;;5036266;28;20051;-78
2022/09/15 10:00:43;;;;;;;;;;;17.50;96.70;;;;;;5034851;28;19929;-78
2022/09/15 10:03:13;;;;;;;;;;;17.50;96.70;;;;;;5040026;28;19929;-76
2022/09/15 10:05:39;;;;;;;;;;;17.50;96.70;;;;;;5038292;28;19929;-78
2022/09/15 10:08:06;;;;;;;;;;;17.50;96.80;;;;;;5039477;28;19986;-78
2022/09/15 10:10:33;;;;;;;;;;;17.50;96.80;;;;;;5038062;28;19937;-78
2022/09/15 10:13:01;;;;;;;;;;;17.40;96.70;;;;;;5040134;28;19936;-78
2022/09/15 10:15:31;;;;;;;;;;;17.50;96.80;;;;;;5036461;28;20006;-78
2022/09/15 10:17:57;;;;;;;;;;;17.40;96.80;;;;;;5039615;28;19933;-78
2022/09/15 10:20:27;;;;;;;;;;;17.40;96.80;;;;;;5041872;28;20393;-79
2022/09/15 10:23:01;;;;;;;;;;;17.40;96.80;;;;;;5038888;28;19936;-79
2022/09/15 10:25:29;;;;;;;;;;;17.40;96.80;;;;;;5038944;28;20018;-78
2022/09/15 10:28:01;;;;;;;;;;;17.40;96.80;;;;;;5038522;28;20003;-78
2022/09/15 10:30:28;;;;;;;;;;;17.40;96.80;;;;;;5043038;28;19942;-79
2022/09/15 10:32:58;;;;;;;;;;;17.40;96.80;;;;;;5041020;28;19963;-78
2022/09/15 10:35:24;;;;;;;;;;;17.40;96.80;;;;;;5043685;28;19925;-78
2022/09/15 10:37:58;;;;;;;;;;;17.30;96.80;;;;;;5036430;28;19929;-77
2022/09/15 10:40:32;;;;;;;;;;;17.40;96.80;;;;;;5026455;28;22005;-77
2022/09/15 10:43:01;;;;;;;;;;;17.30;96.80;;;;;;5035651;28;20012;-78
2022/09/15 10:45:32;;;;;;;;;;;17.30;96.80;;;;;;5039121;28;19928;-79
2022/09/15 10:48:17;;;;;;;;;;;17.30;96.80;;;;;;5041708;28;19936;-78
2022/09/15 10:50:53;;;;;;;;;;;17.30;96.80;;;;;;5039858;28;19936;-77
2022/09/15 10:53:22;;;;;;;;;;;17.30;96.80;;;;;;5038087;28;19929;-78
2022/09/15 10:55:53;;;;;;;;;;;17.40;96.90;;;;;;5033937;28;19933;-76
2022/09/15 10:58:32;;;;;;;;;;;17.30;96.80;;;;;;5040098;28;19929;-77
2022/09/15 11:01:09;;;;;;;;;;;17.30;96.80;;;;;;5037001;28;19929;-77
2022/09/15 11:03:49;;;;;;;;;;;17.30;96.80;;;;;;5033805;28;19929;-77
2022/09/15 11:06:21;;;;;;;;;;;17.30;96.80;;;;;;5021573;28;19929;-77
2022/09/15 11:08:56;;;;;;;;;;;17.30;96.80;;;;;;5030979;28;19975;-77
2022/09/15 11:11:27;;;;;;;;;;;17.30;96.80;;;;;;5037202;28;19936;-78
2022/09/15 11:13:59;;;;;;;;;;;17.30;96.80;;;;;;5037477;28;19936;-78
2022/09/15 11:16:39;;;;;;;;;;;17.30;96.80;;;;;;5037740;28;20520;-76
2022/09/15 11:19:11;;;;;;;;;;;17.30;96.80;;;;;;5039294;28;20640;-77
2022/09/15 11:21:41;;;;;;;;;;;17.20;96.70;;;;;;5030431;28;20702;-78
2022/09/15 11:24:21;;;;;;;;;;;17.30;96.80;;;;;;5035155;28;19933;-78
2022/09/15 11:26:51;;;;;;;;;;;17.30;96.80;;;;;;5042954;28;19937;-78
2022/09/15 11:29:19;;;;;;;;;;;17.30;96.80;;;;;;5046899;28;19932;-78
2022/09/15 11:31:47;;;;;;;;;;;17.30;96.80;;;;;;5041506;28;19933;-77
2022/09/15 11:34:19;;;;;;;;;;;17.30;96.80;;;;;;5044281;28;20414;-76
2022/09/15 11:36:51;;;;;;;;;;;17.30;96.80;;;;;;5043864;28;19928;-76
2022/09/15 11:39:20;;;;;;;;;;;17.30;96.80;;;;;;5037943;28;20040;-76
2022/09/15 11:41:49;;;;;;;;;;;17.30;96.80;;;;;;5040027;28;20447;-77
2022/09/15 11:44:22;;;;;;;;;;;17.30;96.80;;;;;;5044387;28;20491;-77
2022/09/15 11:46:56;;;;;;;;;;;17.30;96.80;;;;;;5043041;28;19943;-78
2022/09/15 11:49:24;;;;;;;;;;;17.30;96.80;;;;;;5040158;28;20018;-77
2022/09/15 11:51:56;;;;;;;;;;;17.30;96.80;;;;;;5038967;28;19929;-77
2022/09/15 11:54:27;;;;;;;;;;;17.30;96.80;;;;;;5044152;28;20015;-77
2022/09/15 11:56:54;;;;;;;;;;;17.30;96.80;;;;;;5043575;28;20343;-77
2022/09/15 11:59:24;;;;;;;;;;;17.30;96.80;;;;;;5035667;28;19936;-78
2022/09/15 12:01:55;;;;;;;;;;;17.30;96.80;;;;;;5041178;28;19940;-78
2022/09/15 12:04:23;;;;;;;;;;;17.30;96.80;;;;;;5041189;28;20011;-76
2022/09/15 12:06:53;;;;;;;;;;;17.30;96.80;;;;;;5039426;28;19936;-77
2022/09/15 12:09:21;;;;;;;;;;;17.30;96.90;;;;;;5043814;28;20039;-76
2022/09/15 12:11:49;;;;;;;;;;;17.40;97.00;;;;;;5039922;28;19932;-77
2022/09/15 12:14:26;;;;;;;;;;;17.40;97.10;;;;;;5045910;28;20764;-77
2022/09/15 12:16:53;;;;;;;;;;;17.50;97.00;;;;;;5044606;28;19933;-75
2022/09/15 12:19:25;;;;;;;;;;;17.50;97.00;;;;;;5044968;28;20274;-75
2022/09/15 12:21:54;;;;;;;;;;;17.60;96.60;;;;;;5046652;28;19940;-76
2022/09/15 12:24:28;;;;;;;;;;;17.60;96.60;;;;;;5049325;28;20400;-76
2022/09/15 12:26:54;;;;;;;;;;;17.70;96.50;;;;;;5047621;28;20385;-76
2022/09/15 12:29:45;;;;;;;;;;;17.70;96.00;;;;;;5048471;28;19929;-76
2022/09/15 12:32:25;;;;;;;;;;;17.80;96.00;;;;;;5033566;28;19929;-75
2022/09/15 12:34:56;;;;;;;;;;;17.80;96.30;;;;;;5042574;28;20305;-75
2022/09/15 12:37:23;;;;;;;;;;;17.90;94.30;;;;;;5042101;28;19932;-76
2022/09/15 12:39:51;;;;;;;;;;;18.30;93.70;;;;;;5041058;28;19929;-76
2022/09/15 12:42:19;;;;;;;;;;;18.90;91.30;;;;;;5040575;28;20336;-76
2022/09/15 12:44:47;;;;;;;;;;;19.40;90.50;;;;;;5045711;28;19929;-75
2022/09/15 12:47:30;;;;;;;;;;;19.90;86.40;;;;;;5046446;28;19933;-76
2022/09/15 12:49:59;;;;;;;;;;;20.40;83.30;;;;;;5037989;28;20004;-73
2022/09/15 12:52:26;;;;;;;;;;;20.80;80.00;;;;;;5034989;28;19956;-73
2022/09/15 12:54:57;;;;;;;;;;;20.80;77.90;;;;;;5038977;28;20389;-72
2022/09/15 12:57:25;;;;;;;;;;;20.70;76.40;;;;;;5035655;28;20034;-73
2022/09/15 13:00:07;;;;;;;;;;;20.90;76.40;;;;;;5038258;28;20555;-72
2022/09/15 13:02:51;;;;;;;;;;;21.20;77.60;;;;;;5033901;28;19940;-73
2022/09/15 13:05:50;;;;;;;;;;;21.50;74.70;;;;;;5043803;28;20361;-75
2022/09/15 13:08:43;;;;;;;;;;;21.30;76.80;;;;;;5031485;28;19995;-74
2022/09/15 13:11:12;;;;;;;;;;;20.80;79.40;;;;;;5036611;28;19939;-76
2022/09/15 13:13:42;;;;;;;;;;;20.40;81.90;;;;;;5038285;28;19929;-75
2022/09/15 13:16:13;;;;;;;;;;;20.20;84.00;;;;;;5033383;28;19987;-75
2022/09/15 13:18:40;;;;;;;;;;;20.00;85.50;;;;;;5037900;28;19929;-75
2022/09/15 13:21:07;;;;;;;;;;;19.80;86.90;;;;;;5038971;28;19932;-76
2022/09/15 13:23:36;;;;;;;;;;;19.70;87.70;;;;;;5037996;28;19978;-76
2022/09/15 13:26:05;;;;;;;;;;;19.60;88.60;;;;;;5038169;28;19940;-77
2022/09/15 13:28:34;;;;;;;;;;;19.60;89.30;;;;;;5040450;28;19928;-76
2022/09/15 13:31:08;;;;;;;;;;;19.50;90.00;;;;;;5037713;28;20383;-76
2022/09/15 13:33:55;;;;;;;;;;;19.50;90.10;;;;;;5040050;28;20008;-76
2022/09/15 13:36:29;;;;;;;;;;;19.50;90.10;;;;;;5042831;28;19929;-76
2022/09/15 13:39:04;;;;;;;;;;;19.50;90.10;;;;;;5038799;28;19935;-75
2022/09/15 13:41:57;;;;;;;;;;;19.50;89.80;;;;;;5040262;28;20015;-73
2022/09/15 13:44:48;;;;;;;;;;;19.60;89.90;;;;;;5017895;28;19936;-72
2022/09/15 13:47:31;;;;;;;;;;;19.60;89.80;;;;;;5043342;28;19929;-72
2022/09/15 13:50:03;;;;;;;;;;;19.60;89.60;;;;;;5042697;28;19929;-74
2022/09/15 13:52:38;;;;;;;;;;;19.70;89.50;;;;;;5039519;28;19932;-73
2022/09/15 13:55:09;;;;;;;;;;;19.70;89.60;;;;;;5040962;28;19932;-74
2022/09/15 13:57:40;;;;;;;;;;;19.70;89.60;;;;;;5039691;28;20451;-74
2022/09/15 14:00:07;;;;;;;;;;;19.70;89.60;;;;;;5037904;28;19928;-72
2022/09/15 14:02:35;;;;;;;;;;;19.70;90.00;;;;;;5043725;28;19928;-73
2022/09/15 14:05:01;;;;;;;;;;;19.70;90.00;;;;;;5042190;28;19932;-73
2022/09/15 14:07:31;;;;;;;;;;;19.70;90.10;;;;;;5041414;28;19940;-73
2022/09/15 14:09:57;;;;;;;;;;;19.70;90.00;;;;;;5039009;28;20459;-74
2022/09/15 14:12:24;;;;;;;;;;;19.70;90.10;;;;;;5040994;28;19990;-72
2022/09/15 14:14:53;;;;;;;;;;;19.70;90.10;;;;;;5042799;28;19925;-73
2022/09/15 14:17:21;;;;;;;;;;;19.70;90.00;;;;;;5040370;28;20055;-74
2022/09/15 14:19:49;;;;;;;;;;;19.80;90.20;;;;;;5045586;28;20759;-75
2022/09/15 14:22:23;;;;;;;;;;;19.80;90.50;;;;;;5037211;28;20055;-74
2022/09/15 14:24:50;;;;;;;;;;;19.70;90.70;;;;;;5041815;28;20027;-74
2022/09/15 14:27:20;;;;;;;;;;;19.70;91.00;;;;;;5038621;28;20495;-74
2022/09/15 14:29:49;;;;;;;;;;;19.70;90.60;;;;;;5041977;28;19929;-74
2022/09/15 14:32:16;;;;;;;;;;;19.70;90.80;;;;;;5038318;28;19929;-74